createdAt,value
2018-04-14T00:00:37.805Z,19.00
2018-04-14T00:01:37.900Z,19.80
2018-04-14T00:02:37.998Z,19.70
2018-04-14T00:03:38.093Z,19.90
2018-04-14T00:04:38.186Z,19.60
2018-04-14T00:05:38.283Z,20.50
2018-04-14T00:06:38.375Z,20.60
2018-04-14T00:07:38.473Z,20.30
2018-04-14T00:08:38.571Z,20.60
2018-04-14T00:09:38.669Z,20.30
2018-04-14T00:10:38.764Z,21.70
2018-04-14T00:11:38.857Z,21.80
2018-04-14T00:12:38.950Z,21.00
2018-04-14T00:13:39.044Z,20.10
2018-04-14T00:14:39.139Z,19.40
2018-04-14T00:15:39.239Z,20.40
2018-04-14T00:16:39.333Z,20.80
2018-04-14T00:17:39.428Z,20.70
2018-04-14T00:18:39.524Z,21.60
2018-04-14T00:19:39.625Z,21.60
2018-04-14T00:20:39.718Z,21.70
2018-04-14T00:21:39.812Z,22.20
2018-04-14T00:22:39.928Z,22.20
2018-04-14T00:23:40.022Z,21.40
2018-04-14T00:24:40.117Z,22.20
2018-04-14T00:25:40.213Z,21.90
2018-04-14T00:26:40.308Z,21.20
2018-04-14T00:27:40.401Z,21.00
2018-04-14T00:28:40.493Z,21.50
2018-04-14T00:29:40.592Z,22.60
2018-04-14T00:30:40.688Z,20.90
2018-04-14T00:31:40.782Z,21.50
2018-04-14T00:32:40.878Z,22.70
2018-04-14T00:33:40.976Z,23.70
2018-04-14T00:34:41.063Z,23.30
2018-04-14T00:35:41.160Z,22.20
2018-04-14T00:36:41.254Z,23.00
2018-04-14T00:37:41.350Z,23.20
2018-04-14T00:38:41.444Z,23.30
2018-04-14T00:39:41.550Z,23.90
2018-04-14T00:40:41.631Z,23.70
2018-04-14T00:41:41.727Z,24.30
2018-04-14T00:42:41.825Z,24.60
2018-04-14T00:43:41.920Z,24.90
2018-04-14T00:44:42.013Z,23.40
2018-04-14T00:45:42.113Z,24.40
2018-04-14T00:46:42.207Z,25.20
2018-04-14T00:47:42.300Z,24.20
2018-04-14T00:48:42.397Z,24.20
2018-04-14T00:49:42.488Z,24.10
2018-04-14T00:50:42.585Z,25.40
2018-04-14T00:51:42.677Z,24.00
2018-04-14T00:52:42.772Z,24.70
2018-04-14T00:53:42.869Z,24.30
2018-04-14T00:54:42.966Z,24.60
2018-04-14T00:55:43.076Z,23.90
2018-04-14T00:56:43.168Z,24.50
2018-04-14T00:57:43.268Z,23.70
2018-04-14T00:58:43.359Z,23.50
2018-04-14T00:59:43.454Z,24.10
2018-04-14T01:00:43.546Z,24.70
2018-04-14T01:01:43.640Z,25.60
2018-04-14T01:02:43.740Z,25.60
2018-04-14T01:03:43.831Z,24.80
2018-04-14T01:04:43.926Z,24.90
2018-04-14T01:05:44.017Z,24.10
2018-04-14T01:06:44.115Z,26.30
2018-04-14T01:07:44.215Z,24.60
2018-04-14T01:08:44.304Z,24.30
2018-04-14T01:09:44.399Z,23.60
2018-04-14T01:10:44.493Z,23.80
2018-04-14T01:11:44.587Z,24.00
2018-04-14T01:12:44.679Z,24.60
2018-04-14T01:13:44.774Z,24.00
2018-04-14T01:14:44.869Z,24.00
2018-04-14T01:15:44.963Z,24.70
2018-04-14T01:16:45.060Z,23.90
2018-04-14T01:17:45.153Z,24.10
2018-04-14T01:18:45.254Z,23.80
2018-04-14T01:19:45.344Z,24.80
2018-04-14T01:20:45.438Z,24.70
2018-04-14T01:21:45.534Z,23.80
2018-04-14T01:22:45.655Z,24.40
2018-04-14T01:23:45.731Z,23.50
2018-04-14T01:24:45.821Z,23.60
2018-04-14T01:25:45.916Z,25.20
2018-04-14T01:26:46.011Z,24.60
2018-04-14T01:27:46.104Z,24.40
2018-04-14T01:28:46.200Z,23.80
2018-04-14T01:29:46.293Z,23.90
2018-04-14T01:30:46.393Z,24.10
2018-04-14T01:31:46.487Z,24.70
2018-04-14T01:32:46.584Z,23.70
2018-04-14T01:33:46.676Z,25.00
2018-04-14T01:34:46.769Z,24.20
2018-04-14T01:35:46.863Z,25.20
2018-04-14T01:36:46.952Z,24.20
2018-04-14T01:37:47.055Z,25.20
2018-04-14T01:38:47.151Z,23.30
2018-04-14T01:39:47.245Z,25.20
2018-04-14T01:40:47.338Z,25.10
2018-04-14T01:41:47.455Z,24.60
2018-04-14T01:42:47.553Z,24.10
2018-04-14T01:43:47.647Z,24.10
2018-04-14T01:44:47.742Z,24.40
2018-04-14T01:45:47.834Z,25.30
2018-04-14T01:46:47.929Z,25.40
2018-04-14T01:47:48.024Z,25.90
2018-04-14T01:48:48.118Z,24.80
2018-04-14T01:49:48.215Z,25.10
2018-04-14T01:50:48.306Z,24.90
2018-04-14T01:51:48.399Z,25.40
2018-04-14T01:52:48.494Z,24.80
2018-04-14T01:53:48.589Z,25.50
2018-04-14T01:54:48.682Z,25.90
2018-04-14T01:55:48.779Z,25.50
2018-04-14T01:56:48.872Z,26.20
2018-04-14T01:57:48.971Z,27.40
2018-04-14T01:58:49.065Z,26.90
2018-04-14T01:59:49.157Z,25.70
2018-04-14T02:00:49.254Z,24.80
2018-04-14T02:01:49.348Z,24.80
2018-04-14T02:02:49.444Z,25.30
2018-04-14T02:03:49.541Z,26.50
2018-04-14T02:04:49.635Z,27.00
2018-04-14T02:05:49.729Z,27.30
2018-04-14T02:06:49.820Z,28.30
2018-04-14T02:07:49.915Z,27.20
2018-04-14T02:08:50.009Z,26.30
2018-04-14T02:09:50.147Z,26.80
2018-04-14T02:10:50.198Z,26.40
2018-04-14T02:11:50.295Z,26.80
2018-04-14T02:12:50.387Z,26.50
2018-04-14T02:13:50.484Z,25.40
2018-04-14T02:14:50.576Z,25.40
2018-04-14T02:15:50.673Z,26.50
2018-04-14T02:16:50.765Z,25.40
2018-04-14T02:17:50.860Z,27.60
2018-04-14T02:18:50.960Z,27.10
2018-04-14T02:19:51.049Z,26.70
2018-04-14T02:20:51.146Z,26.60
2018-04-14T02:21:51.234Z,26.10
2018-04-14T02:22:51.327Z,26.60
2018-04-14T02:23:51.420Z,25.30
2018-04-14T02:24:51.516Z,25.50
2018-04-14T02:25:51.607Z,24.60
2018-04-14T02:26:51.704Z,25.60
2018-04-14T02:27:51.798Z,24.20
2018-04-14T02:28:51.891Z,25.10
2018-04-14T02:29:51.985Z,25.40
2018-04-14T02:30:52.079Z,26.60
2018-04-14T02:31:52.176Z,27.20
2018-04-14T02:32:52.269Z,25.10
2018-04-14T02:33:52.362Z,23.60
2018-04-14T02:34:52.453Z,23.10
2018-04-14T02:35:52.544Z,25.60
2018-04-14T02:36:52.639Z,25.30
2018-04-14T02:37:52.743Z,26.30
2018-04-14T02:38:52.825Z,26.70
2018-04-14T02:39:52.922Z,27.40
2018-04-14T02:40:53.039Z,26.40
2018-04-14T02:41:53.122Z,26.30
2018-04-14T02:42:53.240Z,24.40
2018-04-14T02:43:53.243Z,24.50
2018-04-14T02:44:53.343Z,25.10
2018-04-14T02:45:53.623Z,26.80
2018-04-14T02:46:53.550Z,27.00
2018-04-14T02:47:53.756Z,26.30
2018-04-14T02:48:53.787Z,26.10
2018-04-14T02:49:53.895Z,26.50
2018-04-14T02:50:54.063Z,26.90
2018-04-14T02:51:54.234Z,25.80
2018-04-14T02:52:54.250Z,26.30
2018-04-14T02:53:54.428Z,25.70
2018-04-14T02:54:54.403Z,26.80
2018-04-14T02:55:54.553Z,25.80
2018-04-14T02:56:54.637Z,25.90
2018-04-14T02:57:54.818Z,26.60
2018-04-14T02:58:54.838Z,25.60
2018-04-14T02:59:54.955Z,25.50
2018-04-14T03:00:55.126Z,27.30
2018-04-14T03:01:55.123Z,26.70
2018-04-14T03:02:55.223Z,26.50
2018-04-14T03:03:55.309Z,27.80
2018-04-14T03:04:55.727Z,27.00
2018-04-14T03:05:55.654Z,27.70
2018-04-14T03:06:55.598Z,26.80
2018-04-14T03:07:55.824Z,27.20
2018-04-14T03:08:55.962Z,28.70
2018-04-14T03:09:55.951Z,27.10
2018-04-14T03:10:55.943Z,27.00
2018-04-14T03:11:56.104Z,27.80
2018-04-14T03:12:56.097Z,28.30
2018-04-14T03:13:56.195Z,28.70
2018-04-14T03:14:56.307Z,28.70
2018-04-14T03:15:56.384Z,29.30
2018-04-14T03:16:56.573Z,28.70
2018-04-14T03:17:56.662Z,27.80
2018-04-14T03:18:56.630Z,28.90
2018-04-14T03:19:56.772Z,27.60
2018-04-14T03:20:56.870Z,28.10
2018-04-14T03:21:56.983Z,28.20
2018-04-14T03:22:57.193Z,28.00
2018-04-14T03:23:57.162Z,27.80
2018-04-14T03:24:57.258Z,27.60
2018-04-14T03:25:57.350Z,28.80
2018-04-14T03:26:57.586Z,28.10
2018-04-14T03:27:57.589Z,29.20
2018-04-14T03:28:57.708Z,27.30
2018-04-14T03:29:57.761Z,27.80
2018-04-14T03:30:57.883Z,27.80
2018-04-14T03:31:57.995Z,25.40
2018-04-14T03:32:58.110Z,25.70
2018-04-14T03:33:58.243Z,26.00
2018-04-14T03:34:58.345Z,25.50
2018-04-14T03:35:58.450Z,26.10
2018-04-14T03:36:58.549Z,26.90
2018-04-14T03:37:58.669Z,26.30
2018-04-14T03:38:58.802Z,27.00
2018-04-14T03:39:59.044Z,26.50
2018-04-14T03:40:59.066Z,27.20
2018-04-14T03:41:59.153Z,27.40
2018-04-14T03:42:59.275Z,28.30
2018-04-14T03:43:59.366Z,27.60
2018-04-14T03:44:59.457Z,27.20
2018-04-14T03:45:59.535Z,27.50
2018-04-14T03:46:59.642Z,27.90
2018-04-14T03:47:59.809Z,28.10
2018-04-14T03:48:59.918Z,28.30
2018-04-14T03:50:00.011Z,28.60
2018-04-14T03:51:00.150Z,27.80
2018-04-14T03:52:00.233Z,30.00
2018-04-14T03:53:00.327Z,30.30
2018-04-14T03:54:00.424Z,30.10
2018-04-14T03:55:00.522Z,29.70
2018-04-14T03:56:00.626Z,27.80
2018-04-14T03:57:00.741Z,27.50
2018-04-14T03:58:00.827Z,29.60
2018-04-14T03:59:00.929Z,28.80
2018-04-14T04:00:01.031Z,27.70
2018-04-14T04:01:01.163Z,29.10
2018-04-14T04:02:01.248Z,28.00
2018-04-14T04:03:01.352Z,28.70
2018-04-14T04:04:01.451Z,29.30
2018-04-14T04:05:01.545Z,28.00
2018-04-14T04:06:01.704Z,26.90
2018-04-14T04:07:01.662Z,26.60
2018-04-14T04:08:01.774Z,27.00
2018-04-14T04:09:01.860Z,26.00
2018-04-14T04:10:01.941Z,26.30
2018-04-14T04:11:02.053Z,25.90
2018-04-14T04:12:02.119Z,26.30
2018-04-14T04:13:02.235Z,26.20
2018-04-14T04:14:02.333Z,28.40
2018-04-14T04:15:02.441Z,27.40
2018-04-14T04:16:02.535Z,27.10
2018-04-14T04:17:02.621Z,27.30
2018-04-14T04:18:02.724Z,27.00
2018-04-14T04:19:02.805Z,25.10
2018-04-14T04:20:02.902Z,25.00
2018-04-14T04:21:02.986Z,26.10
2018-04-14T04:22:03.154Z,25.80
2018-04-14T04:23:03.142Z,25.20
2018-04-14T04:24:03.223Z,24.60
2018-04-14T04:25:03.341Z,25.20
2018-04-14T04:26:03.451Z,25.20
2018-04-14T04:27:03.568Z,23.40
2018-04-14T04:28:03.674Z,23.40
2018-04-14T04:29:03.783Z,25.10
2018-04-14T04:30:03.862Z,23.60
2018-04-14T04:31:03.973Z,24.80
2018-04-14T04:32:04.163Z,23.60
2018-04-14T04:33:04.116Z,24.00
2018-04-14T04:34:04.805Z,23.00
2018-04-14T04:35:04.245Z,23.10
2018-04-14T04:36:04.321Z,22.60
2018-04-14T04:37:04.451Z,22.10
2018-04-14T04:38:04.554Z,23.30
2018-04-14T04:39:04.672Z,21.80
2018-04-14T04:40:04.749Z,21.70
2018-04-14T04:41:04.883Z,22.20
2018-04-14T04:42:04.943Z,22.20
2018-04-14T04:43:05.060Z,22.20
2018-04-14T04:44:05.140Z,21.90
2018-04-14T04:45:05.224Z,22.10
2018-04-14T04:46:05.308Z,22.20
2018-04-14T04:47:05.411Z,23.10
2018-04-14T04:48:05.496Z,22.50
2018-04-14T04:49:05.592Z,22.60
2018-04-14T04:50:05.682Z,22.80
2018-04-14T04:51:05.861Z,22.50
2018-04-14T04:52:05.892Z,21.30
2018-04-14T04:53:05.882Z,21.30
2018-04-14T04:54:05.973Z,22.20
2018-04-14T04:55:06.071Z,21.50
2018-04-14T04:56:06.163Z,21.40
2018-04-14T04:57:06.261Z,20.00
2018-04-14T04:58:06.350Z,21.50
2018-04-14T04:59:06.445Z,22.20
2018-04-14T05:00:06.545Z,22.60
2018-04-14T05:01:06.640Z,21.40
2018-04-14T05:02:06.734Z,21.70
2018-04-14T05:03:06.828Z,21.90
2018-04-14T05:04:06.925Z,21.30
2018-04-14T05:05:07.021Z,21.50
2018-04-14T05:06:07.114Z,22.30
2018-04-14T05:07:07.217Z,22.20
2018-04-14T05:08:07.300Z,24.00
2018-04-14T05:09:07.393Z,22.50
2018-04-14T05:10:07.519Z,22.50
2018-04-14T05:11:07.584Z,21.80
2018-04-14T05:12:07.675Z,21.40
2018-04-14T05:13:07.770Z,20.50
2018-04-14T05:14:07.861Z,21.10
2018-04-14T05:15:07.950Z,21.40
2018-04-14T05:16:08.048Z,21.30
2018-04-14T05:17:08.142Z,22.20
2018-04-14T05:18:08.235Z,22.60
2018-04-14T05:19:08.331Z,23.30
2018-04-14T05:20:08.424Z,23.10
2018-04-14T05:21:08.517Z,22.50
2018-04-14T05:22:08.622Z,21.70
2018-04-14T05:23:08.722Z,20.80
2018-04-14T05:24:08.813Z,21.10
2018-04-14T05:25:08.902Z,21.00
2018-04-14T05:26:08.997Z,21.50
2018-04-14T05:27:09.094Z,21.20
2018-04-14T05:28:09.187Z,21.20
2018-04-14T05:29:09.283Z,21.30
2018-04-14T05:30:09.378Z,22.00
2018-04-14T05:31:09.469Z,21.40
2018-04-14T05:32:09.588Z,21.70
2018-04-14T05:33:09.698Z,21.10
2018-04-14T05:34:09.792Z,22.50
2018-04-14T05:35:09.888Z,22.00
2018-04-14T05:36:09.984Z,22.10
2018-04-14T05:37:10.079Z,21.80
2018-04-14T05:38:10.174Z,21.70
2018-04-14T05:39:10.267Z,21.80
2018-04-14T05:40:10.350Z,20.70
2018-04-14T05:41:10.496Z,20.60
2018-04-14T05:42:10.551Z,20.70
2018-04-14T05:43:10.654Z,20.00
2018-04-14T05:44:10.743Z,22.10
2018-04-14T05:45:10.838Z,22.40
2018-04-14T05:46:10.934Z,21.90
2018-04-14T05:47:11.029Z,21.40
2018-04-14T05:48:11.122Z,21.90
2018-04-14T05:49:11.214Z,21.80
2018-04-14T05:50:11.308Z,21.90
2018-04-14T05:51:11.402Z,22.20
2018-04-14T05:52:11.497Z,21.60
2018-04-14T05:53:11.595Z,20.30
2018-04-14T05:54:11.686Z,21.20
2018-04-14T05:55:11.778Z,22.00
2018-04-14T05:56:11.873Z,21.00
2018-04-14T05:57:11.968Z,22.30
2018-04-14T05:58:12.061Z,23.20
2018-04-14T05:59:12.154Z,22.90
2018-04-14T06:00:12.278Z,22.10
2018-04-14T06:01:12.341Z,24.80
2018-04-14T06:02:12.433Z,23.40
2018-04-14T06:03:12.532Z,23.80
2018-04-14T06:04:12.622Z,23.40
2018-04-14T06:05:12.719Z,28.00
2018-04-14T06:06:12.814Z,31.80
2018-04-14T06:07:13.488Z,30.20
2018-04-14T06:08:12.971Z,29.00
2018-04-14T06:09:13.069Z,29.30
2018-04-14T06:10:13.155Z,28.40
2018-04-14T06:11:13.254Z,28.10
2018-04-14T06:12:13.360Z,26.90
2018-04-14T06:13:13.451Z,26.90
2018-04-14T06:14:13.546Z,26.60
2018-04-14T06:15:13.640Z,25.10
2018-04-14T06:16:13.736Z,22.60
2018-04-14T06:17:13.827Z,20.90
2018-04-14T06:18:13.923Z,19.50
2018-04-14T06:19:14.009Z,19.50
2018-04-14T06:20:14.101Z,18.00
2018-04-14T06:21:14.201Z,17.10
2018-04-14T06:22:14.354Z,16.20
2018-04-14T06:23:14.393Z,16.60
2018-04-14T06:24:14.488Z,15.50
2018-04-14T06:25:14.586Z,15.10
2018-04-14T06:26:14.682Z,15.50
2018-04-14T06:27:14.776Z,14.90
2018-04-14T06:28:14.906Z,15.10
2018-04-14T06:29:15.020Z,15.10
2018-04-14T06:30:15.102Z,15.10
2018-04-14T06:31:15.214Z,14.60
2018-04-14T06:32:15.311Z,14.60
2018-04-14T06:33:15.404Z,14.60
2018-04-14T06:34:15.499Z,13.80
2018-04-14T06:35:15.595Z,14.00
2018-04-14T06:36:15.692Z,13.70
2018-04-14T06:37:15.789Z,14.40
2018-04-14T06:38:15.888Z,14.40
2018-04-14T06:39:16.000Z,14.90
2018-04-14T06:40:16.096Z,13.80
2018-04-14T06:41:16.203Z,14.20
2018-04-14T06:42:16.299Z,14.10
2018-04-14T06:43:16.395Z,13.70
2018-04-14T06:44:16.493Z,14.30
2018-04-14T06:45:16.593Z,13.60
2018-04-14T06:46:16.719Z,13.90
2018-04-14T06:47:16.808Z,13.80
2018-04-14T06:48:16.908Z,13.90
2018-04-14T06:49:17.007Z,13.90
2018-04-14T06:50:17.103Z,13.70
2018-04-14T06:51:17.193Z,13.50
2018-04-14T06:52:17.298Z,14.00
2018-04-14T06:53:17.422Z,14.10
2018-04-14T06:54:17.513Z,14.10
2018-04-14T06:55:17.606Z,13.90
2018-04-14T06:56:17.709Z,14.00
2018-04-14T06:57:17.812Z,14.00
2018-04-14T06:58:17.927Z,13.70
2018-04-14T06:59:18.089Z,14.20
2018-04-14T07:00:18.065Z,13.70
2018-04-14T07:01:18.175Z,14.10
2018-04-14T07:02:18.276Z,13.50
2018-04-14T07:03:18.375Z,14.10
2018-04-14T07:04:18.487Z,13.80
2018-04-14T07:05:18.574Z,13.90
2018-04-14T07:06:18.678Z,14.60
2018-04-14T07:07:18.771Z,14.10
2018-04-14T07:08:18.869Z,13.70
2018-04-14T07:09:18.969Z,14.20
2018-04-14T07:10:19.069Z,14.00
2018-04-14T07:11:19.164Z,13.50
2018-04-14T07:12:19.263Z,13.40
2018-04-14T07:13:19.362Z,13.30
2018-04-14T07:14:19.462Z,13.60
2018-04-14T07:15:19.562Z,13.60
2018-04-14T07:16:19.661Z,13.70
2018-04-14T07:17:19.763Z,13.90
2018-04-14T07:18:19.864Z,14.10
2018-04-14T07:19:19.963Z,14.30
2018-04-14T07:20:20.063Z,14.00
2018-04-14T07:21:20.165Z,14.80
2018-04-14T07:22:20.274Z,13.50
2018-04-14T07:23:20.372Z,14.70
2018-04-14T07:24:20.469Z,13.60
2018-04-14T07:25:20.568Z,14.50
2018-04-14T07:26:20.668Z,15.10
2018-04-14T07:27:20.775Z,14.80
2018-04-14T07:28:20.868Z,14.90
2018-04-14T07:29:20.971Z,15.40
2018-04-14T07:30:21.069Z,14.80
2018-04-14T07:31:21.172Z,14.30
2018-04-14T07:32:21.275Z,15.00
2018-04-14T07:33:21.372Z,15.20
2018-04-14T07:34:21.478Z,14.60
2018-04-14T07:35:21.581Z,15.30
2018-04-14T07:36:21.682Z,15.50
2018-04-14T07:37:21.780Z,15.60
2018-04-14T07:38:21.882Z,15.40
2018-04-14T07:39:21.980Z,15.30
2018-04-14T07:40:22.083Z,15.50
2018-04-14T07:41:22.187Z,15.60
2018-04-14T07:42:22.295Z,15.60
2018-04-14T07:43:22.391Z,15.90
2018-04-14T07:44:22.489Z,16.30
2018-04-14T07:45:22.589Z,16.10
2018-04-14T07:46:22.683Z,16.50
2018-04-14T07:47:22.785Z,15.70
2018-04-14T07:48:22.896Z,15.70
2018-04-14T07:49:22.995Z,16.10
2018-04-14T07:50:23.092Z,15.50
2018-04-14T07:51:23.186Z,15.60
2018-04-14T07:52:23.326Z,14.90
2018-04-14T07:53:23.327Z,15.80
2018-04-14T07:54:24.180Z,15.50
2018-04-14T07:55:23.636Z,15.20
2018-04-14T07:56:23.725Z,15.50
2018-04-14T07:57:23.721Z,15.90
2018-04-14T07:58:23.828Z,15.90
2018-04-14T07:59:23.974Z,15.30
2018-04-14T08:00:24.013Z,15.70
2018-04-14T08:01:24.153Z,15.20
2018-04-14T08:02:24.298Z,15.90
2018-04-14T08:03:24.310Z,16.50
2018-04-14T08:04:24.427Z,15.30
2018-04-14T08:05:24.590Z,15.70
2018-04-14T08:06:24.611Z,15.80
2018-04-14T08:07:24.740Z,15.30
2018-04-14T08:08:25.048Z,15.10
2018-04-14T08:09:24.898Z,15.70
2018-04-14T08:10:25.036Z,15.50
2018-04-14T08:11:25.257Z,14.90
2018-04-14T08:12:25.269Z,15.90
2018-04-14T08:13:25.360Z,15.00
2018-04-14T08:14:25.488Z,14.60
2018-04-14T08:15:25.577Z,14.70
2018-04-14T08:16:25.681Z,14.60
2018-04-14T08:17:25.824Z,15.10
2018-04-14T08:18:25.972Z,14.60
2018-04-14T08:19:26.088Z,14.10
2018-04-14T08:20:26.054Z,14.60
2018-04-14T08:21:26.158Z,13.90
2018-04-14T08:22:26.358Z,14.10
2018-04-14T08:23:26.251Z,14.80
2018-04-14T08:24:26.353Z,14.70
2018-04-14T08:25:26.454Z,14.20
2018-04-14T08:26:26.561Z,14.80
2018-04-14T08:27:26.691Z,13.80
2018-04-14T08:28:26.780Z,14.30
2018-04-14T08:29:26.873Z,14.00
2018-04-14T08:30:26.994Z,14.10
2018-04-14T08:31:27.116Z,14.10
2018-04-14T08:32:27.256Z,12.90
2018-04-14T08:33:27.222Z,13.90
2018-04-14T08:34:27.367Z,13.10
2018-04-14T08:35:27.460Z,13.40
2018-04-14T08:36:27.671Z,12.60
2018-04-14T08:37:27.749Z,12.60
2018-04-14T08:38:27.802Z,12.50
2018-04-14T08:39:27.941Z,12.30
2018-04-14T08:40:27.989Z,12.80
2018-04-14T08:41:27.983Z,16.80
2018-04-14T08:42:28.260Z,12.80
2018-04-14T08:43:28.275Z,12.50
2018-04-14T08:44:28.248Z,12.50
2018-04-14T08:45:28.360Z,13.30
2018-04-14T08:46:28.447Z,12.60
2018-04-14T08:47:28.554Z,11.90
2018-04-14T08:48:28.641Z,12.10
2018-04-14T08:49:28.724Z,12.90
2018-04-14T08:50:28.816Z,12.90
2018-04-14T08:51:28.970Z,12.60
2018-04-14T08:52:29.169Z,11.50
2018-04-14T08:53:29.134Z,12.40
2018-04-14T08:54:29.237Z,12.20
2018-04-14T08:55:29.347Z,11.10
2018-04-14T08:56:29.447Z,11.40
2018-04-14T08:57:29.536Z,10.80
2018-04-14T08:58:29.646Z,10.70
2018-04-14T08:59:29.777Z,10.50
2018-04-14T09:00:29.902Z,9.90
2018-04-14T09:01:30.007Z,9.50
2018-04-14T09:02:30.100Z,9.50
2018-04-14T09:03:30.197Z,9.00
2018-04-14T09:04:30.303Z,9.20
2018-04-14T09:05:30.520Z,10.10
2018-04-14T09:06:30.508Z,9.20
2018-04-14T09:07:30.596Z,9.30
2018-04-14T09:08:30.688Z,10.00
2018-04-14T09:09:30.857Z,9.10
2018-04-14T09:10:30.846Z,9.80
2018-04-14T09:11:30.960Z,9.10
2018-04-14T09:12:31.071Z,9.00
2018-04-14T09:13:31.304Z,8.80
2018-04-14T09:14:31.280Z,9.20
2018-04-14T09:15:31.375Z,8.70
2018-04-14T09:16:31.463Z,9.30
2018-04-14T09:17:31.550Z,8.70
2018-04-14T09:18:31.649Z,9.00
2018-04-14T09:19:31.748Z,9.10
2018-04-14T09:20:31.854Z,8.60
2018-04-14T09:21:31.942Z,8.70
2018-04-14T09:22:32.083Z,9.40
2018-04-14T09:23:32.170Z,8.70
2018-04-14T09:24:32.305Z,8.60
2018-04-14T09:25:32.402Z,8.90
2018-04-14T09:26:32.526Z,8.60
2018-04-14T09:27:32.622Z,8.60
2018-04-14T09:28:32.751Z,8.60
2018-04-14T09:29:32.860Z,8.60
2018-04-14T09:30:32.998Z,8.80
2018-04-14T09:31:33.086Z,8.70
2018-04-14T09:32:33.185Z,8.80
2018-04-14T09:33:33.367Z,8.20
2018-04-14T09:34:33.339Z,8.80
2018-04-14T09:35:33.451Z,8.40
2018-04-14T09:36:33.534Z,8.20
2018-04-14T09:37:33.646Z,7.60
2018-04-14T09:38:33.739Z,8.70
2018-04-14T09:39:33.825Z,7.90
2018-04-14T09:40:33.925Z,7.70
2018-04-14T09:41:34.025Z,8.20
2018-04-14T09:42:34.122Z,7.50
2018-04-14T09:43:34.229Z,8.40
2018-04-14T09:44:34.368Z,7.30
2018-04-14T09:45:34.501Z,6.80
2018-04-14T09:46:34.629Z,7.00
2018-04-14T09:47:34.700Z,7.30
2018-04-14T09:48:34.804Z,7.90
2018-04-14T09:49:34.893Z,7.60
2018-04-14T09:50:34.980Z,7.20
2018-04-14T09:51:35.089Z,7.10
2018-04-14T09:52:35.194Z,7.00
2018-04-14T09:53:35.328Z,7.20
2018-04-14T09:54:35.427Z,7.20
2018-04-14T09:55:35.528Z,7.10
2018-04-14T09:56:35.620Z,6.70
2018-04-14T09:57:35.743Z,6.60
2018-04-14T09:58:35.835Z,7.10
2018-04-14T09:59:36.045Z,6.50
2018-04-14T10:00:36.014Z,6.10
2018-04-14T10:01:36.157Z,5.90
2018-04-14T10:02:36.436Z,5.90
2018-04-14T10:03:36.411Z,6.50
2018-04-14T10:04:36.528Z,6.30
2018-04-14T10:05:36.613Z,6.30
2018-04-14T10:06:36.734Z,6.30
2018-04-14T10:07:36.829Z,5.80
2018-04-14T10:08:36.950Z,5.70
2018-04-14T10:09:37.052Z,5.80
2018-04-14T10:10:37.182Z,5.40
2018-04-14T10:11:37.280Z,5.60
2018-04-14T10:12:37.419Z,5.90
2018-04-14T10:13:37.514Z,6.40
2018-04-14T10:14:37.622Z,5.70
2018-04-14T10:15:37.788Z,5.70
2018-04-14T10:16:37.789Z,5.40
2018-04-14T10:17:37.888Z,5.20
2018-04-14T10:18:37.991Z,4.70
2018-04-14T10:19:38.092Z,5.10
2018-04-14T10:20:38.197Z,4.80
2018-04-14T10:21:38.277Z,4.70
2018-04-14T10:22:38.384Z,5.40
2018-04-14T10:23:38.478Z,5.50
2018-04-14T10:24:38.585Z,5.10
2018-04-14T10:25:38.689Z,5.20
2018-04-14T10:26:38.789Z,5.00
2018-04-14T10:27:38.932Z,5.00
2018-04-14T10:28:39.057Z,4.60
2018-04-14T10:29:39.183Z,4.50
2018-04-14T10:30:39.287Z,4.90
2018-04-14T10:31:39.388Z,4.80
2018-04-14T10:32:39.485Z,4.80
2018-04-14T10:33:39.582Z,4.80
2018-04-14T10:34:39.683Z,4.60
2018-04-14T10:35:39.786Z,4.70
2018-04-14T10:36:39.880Z,4.60
2018-04-14T10:37:40.035Z,5.00
2018-04-14T10:38:40.080Z,4.40
2018-04-14T10:39:40.182Z,4.10
2018-04-14T10:40:40.282Z,4.10
2018-04-14T10:41:40.377Z,4.20
2018-04-14T10:42:40.487Z,3.70
2018-04-14T10:43:40.584Z,4.40
2018-04-14T10:44:40.682Z,4.30
2018-04-14T10:45:40.785Z,4.80
2018-04-14T10:46:40.884Z,4.40
2018-04-14T10:47:40.982Z,4.20
2018-04-14T10:48:41.082Z,4.80
2018-04-14T10:49:41.184Z,4.20
2018-04-14T10:50:41.282Z,4.20
2018-04-14T10:51:41.383Z,3.70
2018-04-14T10:52:41.481Z,4.10
2018-04-14T10:53:41.586Z,4.40
2018-04-14T10:54:41.686Z,4.50
2018-04-14T10:55:41.797Z,4.00
2018-04-14T10:56:41.891Z,4.40
2018-04-14T10:57:41.989Z,4.50
2018-04-14T10:58:42.091Z,4.00
2018-04-14T10:59:42.194Z,4.00
2018-04-14T11:00:42.292Z,3.80
2018-04-14T11:01:42.400Z,3.90
2018-04-14T11:02:42.499Z,4.30
2018-04-14T11:03:42.599Z,4.00
2018-04-14T11:04:42.701Z,3.70
2018-04-14T11:05:42.803Z,3.60
2018-04-14T11:06:42.903Z,3.60
2018-04-14T11:07:43.006Z,3.80
2018-04-14T11:08:43.107Z,3.70
2018-04-14T11:09:43.211Z,3.70
2018-04-14T11:10:43.312Z,3.30
2018-04-14T11:11:43.414Z,3.20
2018-04-14T11:12:43.513Z,3.50
2018-04-14T11:13:43.616Z,3.50
2018-04-14T11:14:43.720Z,3.80
2018-04-14T11:15:43.820Z,3.90
2018-04-14T11:16:43.958Z,3.50
2018-04-14T11:17:44.022Z,3.40
2018-04-14T11:18:44.126Z,3.30
2018-04-14T11:19:44.226Z,3.40
2018-04-14T11:20:44.330Z,3.20
2018-04-14T11:21:44.433Z,3.70
2018-04-14T11:22:44.534Z,3.00
2018-04-14T11:23:44.646Z,3.00
2018-04-14T11:24:44.738Z,3.00
2018-04-14T11:25:44.848Z,3.00
2018-04-14T11:26:44.944Z,2.90
2018-04-14T11:27:45.054Z,3.10
2018-04-14T11:28:45.158Z,3.20
2018-04-14T11:29:45.267Z,2.90
2018-04-14T11:30:45.360Z,2.70
2018-04-14T11:31:45.465Z,2.90
2018-04-14T11:32:45.564Z,2.90
2018-04-14T11:33:45.664Z,2.60
2018-04-14T11:34:45.766Z,3.00
2018-04-14T11:35:45.868Z,2.80
2018-04-14T11:36:45.970Z,2.30
2018-04-14T11:37:46.072Z,2.10
2018-04-14T11:38:46.167Z,2.20
2018-04-14T11:39:46.265Z,2.00
2018-04-14T11:40:46.366Z,1.90
2018-04-14T11:41:46.467Z,1.80
2018-04-14T11:42:46.567Z,1.80
2018-04-14T11:43:46.671Z,1.80
2018-04-14T11:44:46.774Z,1.80
2018-04-14T11:45:46.871Z,1.80
2018-04-14T11:46:46.971Z,1.60
2018-04-14T11:47:47.072Z,1.50
2018-04-14T11:48:47.173Z,1.50
2018-04-14T11:49:47.272Z,1.30
2018-04-14T11:50:47.375Z,1.40
2018-04-14T11:51:47.480Z,1.30
2018-04-14T11:52:47.577Z,1.40
2018-04-14T11:53:47.678Z,1.30
2018-04-14T11:54:47.777Z,1.40
2018-04-14T11:55:47.878Z,1.30
2018-04-14T11:56:47.978Z,1.30
2018-04-14T11:57:48.083Z,1.30
2018-04-14T11:58:48.185Z,1.50
2018-04-14T11:59:48.289Z,1.10
2018-04-14T12:00:48.385Z,1.10
2018-04-14T12:01:48.485Z,1.20
2018-04-14T12:02:48.591Z,1.30
2018-04-14T12:03:48.691Z,1.30
2018-04-14T12:04:48.793Z,1.10
2018-04-14T12:05:48.885Z,1.30
2018-04-14T12:06:48.996Z,1.20
2018-04-14T12:07:49.098Z,1.40
2018-04-14T12:08:49.200Z,1.30
2018-04-14T12:09:49.303Z,1.20
2018-04-14T12:10:49.405Z,1.10
2018-04-14T12:11:49.503Z,1.80
2018-04-14T12:12:49.603Z,1.50
2018-04-14T12:13:49.704Z,1.40
2018-04-14T12:14:49.809Z,1.20
2018-04-14T12:15:49.906Z,1.20
2018-04-14T12:16:50.006Z,1.40
2018-04-14T12:17:50.106Z,1.10
2018-04-14T12:18:50.214Z,1.30
2018-04-14T12:19:50.310Z,1.10
2018-04-14T12:20:50.412Z,1.20
2018-04-14T12:21:50.511Z,1.60
2018-04-14T12:22:50.612Z,1.30
2018-04-14T12:23:50.716Z,1.20
2018-04-14T12:24:50.817Z,1.20
2018-04-14T12:25:50.916Z,1.20
2018-04-14T12:26:51.017Z,1.20
2018-04-14T12:27:51.122Z,1.20
2018-04-14T12:28:51.221Z,1.10
2018-04-14T12:29:51.321Z,1.20
2018-04-14T12:30:51.422Z,1.40
2018-04-14T12:31:51.524Z,1.20
2018-04-14T12:32:51.623Z,1.30
2018-04-14T12:33:51.723Z,1.10
2018-04-14T12:34:51.828Z,1.10
2018-04-14T12:35:51.937Z,1.20
2018-04-14T12:36:52.036Z,1.20
2018-04-14T12:37:52.138Z,1.10
2018-04-14T12:38:52.293Z,1.20
2018-04-14T12:39:52.340Z,1.30
2018-04-14T12:40:52.444Z,1.30
2018-04-14T12:41:52.547Z,1.50
2018-04-14T12:42:52.644Z,1.50
2018-04-14T12:43:52.744Z,1.40
2018-04-14T12:44:52.841Z,1.50
2018-04-14T12:45:52.950Z,1.50
2018-04-14T12:46:53.046Z,1.20
2018-04-14T12:47:53.150Z,1.30
2018-04-14T12:48:53.250Z,1.30
2018-04-14T12:49:53.672Z,1.40
2018-04-14T12:50:53.427Z,1.60
2018-04-14T12:51:53.552Z,1.50
2018-04-14T12:52:53.666Z,1.40
2018-04-14T12:53:53.925Z,1.30
2018-04-14T12:54:53.916Z,1.40
2018-04-14T12:55:54.096Z,1.30
2018-04-14T12:56:54.164Z,1.40
2018-04-14T12:57:54.211Z,1.20
2018-04-14T12:58:54.332Z,1.40
2018-04-14T12:59:55.650Z,1.30
2018-04-14T13:00:54.561Z,1.40
2018-04-14T13:01:54.595Z,1.20